Time;durP1;ratioP1;P1;durP2;ratioP2;P2;SDS_P1;SDS_P2;PMS_P1;PMS_P2;Temp;Humidity;BMP_temperature;BMP_pressure;BME280_temperature;BME280_humidity;BME280_pressure;Samples;Min_cycle;Max_cycle;Signal;HPM_P1;HPM_P2
2023/03/15 00:00:18;;;;;;;11.10;2.15;;;;;;;;;;5013441;28;20506;-68
2023/03/15 00:02:43;;;;;;;8.95;1.83;;;;;;;;;;5013138;28;20172;-68
2023/03/15 00:05:11;;;;;;;3.50;1.23;;;;;;;;;;5013231;28;20454;-68
2023/03/15 00:07:37;;;;;;;10.90;2.17;;;;;;;;;;5013042;28;20515;-68
2023/03/15 00:10:04;;;;;;;5.53;1.15;;;;;;;;;;4995506;28;20029;-68
2023/03/15 00:12:29;;;;;;;8.82;1.42;;;;;;;;;;5013069;28;20378;-68
2023/03/15 00:14:54;;;;;;;11.18;2.17;;;;;;;;;;5012984;28;20026;-69
2023/03/15 00:17:21;;;;;;;4.85;1.33;;;;;;;;;;5012806;28;20490;-69
2023/03/15 00:19:47;;;;;;;2.38;1.08;;;;;;;;;;5012943;28;20030;-68
2023/03/15 00:22:12;;;;;;;12.05;2.30;;;;;;;;;;5012682;28;20390;-69
2023/03/15 00:24:38;;;;;;;5.75;1.38;;;;;;;;;;5012835;28;20022;-68
2023/03/15 00:27:04;;;;;;;4.43;1.70;;;;;;;;;;5012929;28;20076;-68
2023/03/15 00:29:30;;;;;;;8.00;1.65;;;;;;;;;;5007706;28;20042;-68
2023/03/15 00:31:56;;;;;;;2.58;0.98;;;;;;;;;;5002412;28;20387;-68
2023/03/15 00:34:24;;;;;;;7.75;1.42;;;;;;;;;;5001802;28;20029;-68
2023/03/15 00:36:52;;;;;;;5.70;1.17;;;;;;;;;;5000145;28;20026;-68
2023/03/15 00:39:18;;;;;;;10.05;2.13;;;;;;;;;;5001993;28;20022;-68
2023/03/15 00:41:44;;;;;;;9.98;1.63;;;;;;;;;;5002092;28;20332;-68
2023/03/15 00:44:10;;;;;;;4.57;1.40;;;;;;;;;;5000425;28;20023;-68
2023/03/15 00:46:36;;;;;;;9.77;1.73;;;;;;;;;;5002322;28;20025;-69
2023/03/15 00:49:01;;;;;;;12.02;1.70;;;;;;;;;;5001566;28;20407;-68
2023/03/15 00:51:26;;;;;;;6.00;1.25;;;;;;;;;;5000417;28;20077;-68
2023/03/15 00:53:52;;;;;;;5.60;2.03;;;;;;;;;;5003545;28;20029;-68
2023/03/15 00:56:24;;;;;;;6.05;1.70;;;;;;;;;;5000892;28;20037;-68
2023/03/15 00:58:51;;;;;;;7.15;1.50;;;;;;;;;;5006338;28;20025;-68
2023/03/15 01:01:22;;;;;;;5.22;1.00;;;;;;;;;;5012503;28;20155;-68
2023/03/15 01:03:48;;;;;;;8.13;1.20;;;;;;;;;;5012294;28;20087;-68
2023/03/15 01:06:17;;;;;;;8.27;2.13;;;;;;;;;;5012382;28;20108;-69
2023/03/15 01:08:42;;;;;;;11.48;2.15;;;;;;;;;;5012402;28;20038;-69
2023/03/15 01:11:27;;;;;;;6.03;1.75;;;;;;;;;;5012508;28;20383;-68
2023/03/15 01:13:55;;;;;;;7.80;1.35;;;;;;;;;;5012336;28;20109;-68
2023/03/15 01:16:21;;;;;;;9.80;1.48;;;;;;;;;;5012315;28;20463;-68
2023/03/15 01:18:47;;;;;;;3.95;1.55;;;;;;;;;;5012383;28;20026;-68
2023/03/15 01:21:14;;;;;;;7.45;1.50;;;;;;;;;;5012190;28;20020;-68
2023/03/15 01:23:40;;;;;;;12.85;1.50;;;;;;;;;;5012417;28;20026;-68
2023/03/15 01:26:09;;;;;;;3.97;0.93;;;;;;;;;;5012313;28;20368;-68
2023/03/15 01:28:34;;;;;;;7.97;1.35;;;;;;;;;;5012206;28;20076;-68
2023/03/15 01:31:00;;;;;;;10.63;1.70;;;;;;;;;;5012454;28;20348;-68
2023/03/15 01:33:26;;;;;;;7.57;1.45;;;;;;;;;;5012435;28;20463;-68
2023/03/15 01:36:03;;;;;;;7.10;1.15;;;;;;;;;;5011902;28;20080;-68
2023/03/15 01:38:30;;;;;;;3.88;1.23;;;;;;;;;;5012123;28;20080;-68
2023/03/15 01:40:56;;;;;;;7.97;2.25;;;;;;;;;;5012321;28;20080;-68
2023/03/15 01:43:23;;;;;;;5.68;1.33;;;;;;;;;;5012148;28;20108;-68
2023/03/15 01:46:05;;;;;;;5.25;1.30;;;;;;;;;;5012109;28;20025;-68
2023/03/15 01:48:33;;;;;;;7.43;1.58;;;;;;;;;;5012020;28;20125;-68
2023/03/15 01:51:01;;;;;;;5.80;1.50;;;;;;;;;;5011794;28;20168;-68
2023/03/15 01:53:29;;;;;;;6.05;1.17;;;;;;;;;;5011976;28;20034;-68
2023/03/15 01:55:55;;;;;;;13.70;1.70;;;;;;;;;;4994215;28;20061;-68
2023/03/15 01:58:24;;;;;;;8.98;1.70;;;;;;;;;;5012068;28;20057;-68
2023/03/15 02:00:51;;;;;;;2.70;0.88;;;;;;;;;;5012058;28;20111;-68
2023/03/15 02:03:21;;;;;;;12.57;2.00;;;;;;;;;;5011953;28;20036;-68
2023/03/15 02:05:53;;;;;;;7.05;1.80;;;;;;;;;;5013776;28;20049;-69
2023/03/15 02:08:21;;;;;;;4.45;1.30;;;;;;;;;;5015472;28;20039;-68
2023/03/15 02:10:51;;;;;;;4.43;1.42;;;;;;;;;;5015339;28;20033;-68
2023/03/15 02:13:21;;;;;;;10.00;1.55;;;;;;;;;;5015282;28;20113;-68
2023/03/15 02:15:47;;;;;;;7.18;1.55;;;;;;;;;;5015305;28;20044;-68
2023/03/15 02:18:13;;;;;;;5.72;1.25;;;;;;;;;;5015000;28;20030;-68
2023/03/15 02:20:59;;;;;;;7.78;1.48;;;;;;;;;;5015106;28;20076;-69
2023/03/15 02:23:25;;;;;;;7.70;1.40;;;;;;;;;;5015135;28;20203;-69
2023/03/15 02:25:50;;;;;;;7.88;1.50;;;;;;;;;;5015101;28;20030;-68
2023/03/15 02:28:18;;;;;;;3.17;1.15;;;;;;;;;;5015136;28;20026;-69
2023/03/15 02:30:44;;;;;;;9.02;1.80;;;;;;;;;;5014943;28;20030;-68
2023/03/15 02:33:27;;;;;;;6.72;0.98;;;;;;;;;;5014667;28;20046;-68
2023/03/15 02:35:54;;;;;;;6.10;1.50;;;;;;;;;;5014815;28;20486;-68
2023/03/15 02:38:21;;;;;;;2.90;1.10;;;;;;;;;;5014886;28;20064;-68
2023/03/15 02:40:47;;;;;;;7.35;1.23;;;;;;;;;;5014660;28;20034;-68
2023/03/15 02:43:16;;;;;;;9.52;1.73;;;;;;;;;;5014775;28;20030;-68
2023/03/15 02:45:43;;;;;;;8.95;1.40;;;;;;;;;;5014667;28;20113;-69
2023/03/15 02:48:10;;;;;;;6.13;1.45;;;;;;;;;;5013579;28;20382;-68
2023/03/15 02:50:36;;;;;;;5.85;1.05;;;;;;;;;;5014345;28;20553;-68
2023/03/15 02:53:04;;;;;;;7.38;1.40;;;;;;;;;;5014466;28;20034;-68
2023/03/15 02:55:31;;;;;;;4.05;1.58;;;;;;;;;;5014583;28;20044;-68
2023/03/15 02:57:58;;;;;;;6.38;1.65;;;;;;;;;;5014717;28;20382;-68
2023/03/15 03:00:23;;;;;;;1.60;1.00;;;;;;;;;;5014426;28;20033;-67
2023/03/15 03:02:49;;;;;;;10.45;1.17;;;;;;;;;;5014106;28;20025;-68
2023/03/15 03:05:15;;;;;;;10.27;1.52;;;;;;;;;;5014316;28;20083;-68
2023/03/15 03:07:43;;;;;;;4.10;1.20;;;;;;;;;;5014364;28;20065;-68
2023/03/15 03:10:14;;;;;;;3.90;1.50;;;;;;;;;;5014227;28;20037;-68
2023/03/15 03:12:39;;;;;;;4.95;1.40;;;;;;;;;;5014163;28;20034;-68
2023/03/15 03:15:06;;;;;;;8.00;1.52;;;;;;;;;;5014167;28;20049;-68
2023/03/15 03:17:36;;;;;;;5.68;1.75;;;;;;;;;;5013905;28;20487;-68
2023/03/15 03:20:06;;;;;;;8.55;3.10;;;;;;;;;;5014321;28;20458;-68
2023/03/15 03:22:33;;;;;;;10.65;1.98;;;;;;;;;;5013832;28;20026;-68
2023/03/15 03:24:59;;;;;;;5.15;1.77;;;;;;;;;;5013945;28;20478;-68
2023/03/15 03:27:24;;;;;;;11.68;2.85;;;;;;;;;;5013800;28;20053;-68
2023/03/15 03:29:50;;;;;;;10.40;2.38;;;;;;;;;;4996248;28;20022;-68
2023/03/15 03:32:15;;;;;;;4.38;1.75;;;;;;;;;;5013585;28;20026;-68
2023/03/15 03:34:41;;;;;;;6.90;1.58;;;;;;;;;;5013705;28;20195;-68
2023/03/15 03:37:06;;;;;;;3.22;1.50;;;;;;;;;;5013779;28;20478;-68
2023/03/15 03:39:32;;;;;;;9.13;1.85;;;;;;;;;;5013937;28;20390;-68
2023/03/15 03:41:57;;;;;;;6.97;2.03;;;;;;;;;;5013716;28;20029;-68
2023/03/15 03:44:22;;;;;;;2.78;1.27;;;;;;;;;;5013644;28;20037;-68
2023/03/15 03:46:48;;;;;;;9.88;1.90;;;;;;;;;;5013259;28;20034;-68
2023/03/15 03:49:13;;;;;;;3.92;1.33;;;;;;;;;;5013670;28;20025;-68
2023/03/15 03:51:40;;;;;;;5.43;1.10;;;;;;;;;;5013309;28;20045;-68
2023/03/15 03:54:05;;;;;;;5.72;1.45;;;;;;;;;;5030513;28;20386;-68
2023/03/15 03:56:31;;;;;;;7.00;1.73;;;;;;;;;;5032869;28;20037;-68
2023/03/15 03:58:57;;;;;;;7.88;1.52;;;;;;;;;;5032964;28;20029;-68
2023/03/15 04:01:22;;;;;;;6.78;2.60;;;;;;;;;;5032884;28;20021;-69
2023/03/15 04:03:48;;;;;;;10.73;1.63;;;;;;;;;;5033257;28;20035;-69
2023/03/15 04:06:14;;;;;;;5.70;1.38;;;;;;;;;;5033019;28;20367;-69
2023/03/15 04:08:40;;;;;;;8.63;1.60;;;;;;;;;;5032835;28;20036;-68
2023/03/15 04:11:06;;;;;;;8.95;1.52;;;;;;;;;;5032907;28;20017;-69
2023/03/15 04:13:32;;;;;;;7.25;1.90;;;;;;;;;;5032852;28;20036;-69
2023/03/15 04:16:00;;;;;;;6.68;1.70;;;;;;;;;;5032376;28;20029;-69
2023/03/15 04:18:26;;;;;;;6.03;1.27;;;;;;;;;;5032654;28;20489;-69
2023/03/15 04:20:53;;;;;;;6.72;1.30;;;;;;;;;;5020490;28;20045;-69
2023/03/15 04:23:20;;;;;;;4.47;1.63;;;;;;;;;;5010253;28;20064;-69
2023/03/15 04:25:49;;;;;;;6.32;1.40;;;;;;;;;;5012952;28;20159;-69
2023/03/15 04:28:15;;;;;;;4.87;1.50;;;;;;;;;;5012644;28;20029;-69
2023/03/15 04:30:44;;;;;;;5.75;1.58;;;;;;;;;;5012751;28;20113;-69
2023/03/15 04:33:10;;;;;;;5.68;1.20;;;;;;;;;;5013005;28;20029;-69
2023/03/15 04:35:37;;;;;;;2.97;1.20;;;;;;;;;;5012736;28;20022;-69
2023/03/15 04:38:03;;;;;;;3.92;1.15;;;;;;;;;;5012841;28;20064;-69
2023/03/15 04:40:33;;;;;;;5.60;1.20;;;;;;;;;;5012726;28;20030;-70
2023/03/15 04:43:00;;;;;;;5.25;1.63;;;;;;;;;;5012538;28;20045;-69
2023/03/15 04:45:27;;;;;;;9.85;1.67;;;;;;;;;;5012721;28;20203;-69
2023/03/15 04:47:54;;;;;;;6.35;1.42;;;;;;;;;;5012615;28;20026;-69
2023/03/15 04:50:21;;;;;;;8.50;1.42;;;;;;;;;;5012527;28;20487;-70
2023/03/15 04:52:47;;;;;;;3.15;1.20;;;;;;;;;;5001265;28;20120;-69
2023/03/15 04:55:12;;;;;;;6.53;1.58;;;;;;;;;;5032203;28;20083;-69
2023/03/15 04:57:38;;;;;;;2.25;1.13;;;;;;;;;;5031931;28;20025;-69
2023/03/15 05:00:08;;;;;;;9.07;1.83;;;;;;;;;;5032373;28;20034;-69
2023/03/15 05:02:34;;;;;;;;;;;;;;;;;;5032694;28;20025;-69
2023/03/15 05:05:00;;;;;;;7.43;1.95;;;;;;;;;;5014555;28;20421;-69
2023/03/15 05:07:25;;;;;;;7.40;2.15;;;;;;;;;;5032214;28;20029;-69
2023/03/15 05:09:51;;;;;;;4.82;1.48;;;;;;;;;;5032146;28;20025;-69
2023/03/15 05:12:17;;;;;;;6.00;1.40;;;;;;;;;;5032004;28;20086;-69
2023/03/15 05:14:43;;;;;;;8.10;1.33;;;;;;;;;;5032032;28;20060;-69
2023/03/15 05:17:08;;;;;;;5.63;1.60;;;;;;;;;;5032172;28;20033;-69
2023/03/15 05:19:34;;;;;;;3.67;1.42;;;;;;;;;;5032020;28;20035;-69
2023/03/15 05:22:01;;;;;;;6.40;1.88;;;;;;;;;;5032029;28;20471;-69
2023/03/15 05:24:26;;;;;;;6.38;1.73;;;;;;;;;;5032123;28;20029;-69
2023/03/15 05:26:53;;;;;;;6.15;2.13;;;;;;;;;;5031794;28;20041;-70
2023/03/15 05:29:20;;;;;;;7.10;1.80;;;;;;;;;;5031750;28;20026;-69
2023/03/15 05:31:46;;;;;;;4.15;1.60;;;;;;;;;;5032086;28;20029;-69
2023/03/15 05:34:11;;;;;;;7.15;1.42;;;;;;;;;;5032041;28;20026;-69
2023/03/15 05:36:37;;;;;;;21.13;1.63;;;;;;;;;;5031800;28;20034;-69
2023/03/15 05:39:02;;;;;;;8.38;1.90;;;;;;;;;;5031926;28;20018;-69
2023/03/15 05:41:28;;;;;;;6.15;1.48;;;;;;;;;;5034843;28;20029;-69
2023/03/15 05:43:53;;;;;;;6.70;1.58;;;;;;;;;;5035836;28;20516;-69
2023/03/15 05:46:21;;;;;;;6.03;1.50;;;;;;;;;;5035727;28;20429;-69
2023/03/15 05:48:47;;;;;;;6.75;1.95;;;;;;;;;;5035551;28;20474;-69
2023/03/15 05:51:13;;;;;;;6.20;1.60;;;;;;;;;;5035248;28;20050;-69
2023/03/15 05:53:38;;;;;;;4.75;1.48;;;;;;;;;;5035111;28;20419;-69
2023/03/15 05:56:03;;;;;;;7.00;1.40;;;;;;;;;;5035105;28;20029;-69
2023/03/15 05:58:29;;;;;;;6.30;1.80;;;;;;;;;;5035441;28;20386;-70
2023/03/15 06:00:54;;;;;;;4.85;1.30;;;;;;;;;;5035290;28;20450;-69
2023/03/15 06:03:20;;;;;;;8.55;2.08;;;;;;;;;;5035344;28;20021;-69
2023/03/15 06:05:45;;;;;;;5.10;1.30;;;;;;;;;;5035216;28;20029;-69
2023/03/15 06:08:11;;;;;;;6.63;1.80;;;;;;;;;;5035263;28;20025;-69
2023/03/15 06:10:36;;;;;;;7.63;1.50;;;;;;;;;;5015373;28;20026;-69
2023/03/15 06:13:02;;;;;;;5.63;1.35;;;;;;;;;;5015398;28;20041;-69
2023/03/15 06:15:27;;;;;;;2.88;1.13;;;;;;;;;;5015046;28;20029;-69
2023/03/15 06:17:53;;;;;;;5.15;1.60;;;;;;;;;;4981664;28;20029;-69
2023/03/15 06:20:18;;;;;;;4.07;1.67;;;;;;;;;;5015550;28;20490;-69
2023/03/15 06:22:44;;;;;;;8.40;2.22;;;;;;;;;;5015287;28;20041;-69
2023/03/15 06:25:10;;;;;;;4.97;1.60;;;;;;;;;;5014875;28;20030;-69
2023/03/15 06:27:37;;;;;;;5.15;1.60;;;;;;;;;;5014735;28;20051;-69
2023/03/15 06:30:03;;;;;;;6.97;1.80;;;;;;;;;;5015134;28;20041;-69
2023/03/15 06:32:29;;;;;;;7.28;1.83;;;;;;;;;;5014998;28;20057;-69
2023/03/15 06:34:54;;;;;;;3.85;1.65;;;;;;;;;;5014879;28;20033;-69
2023/03/15 06:37:20;;;;;;;4.63;1.63;;;;;;;;;;5014999;28;20062;-69
2023/03/15 06:39:46;;;;;;;4.25;1.83;;;;;;;;;;5014562;28;20461;-69
2023/03/15 06:42:12;;;;;;;6.07;1.55;;;;;;;;;;5014832;28;20030;-69
2023/03/15 06:44:39;;;;;;;6.00;1.40;;;;;;;;;;5014666;28;20041;-69
2023/03/15 06:47:05;;;;;;;5.15;1.50;;;;;;;;;;4997206;28;20037;-69
2023/03/15 06:49:31;;;;;;;5.38;1.40;;;;;;;;;;5014825;28;20092;-70
2023/03/15 06:51:56;;;;;;;6.18;1.90;;;;;;;;;;5014178;28;20471;-69
2023/03/15 06:54:22;;;;;;;5.65;1.75;;;;;;;;;;5033723;28;20061;-70
2023/03/15 06:56:48;;;;;;;4.57;1.50;;;;;;;;;;5034287;28;20033;-69
2023/03/15 06:59:13;;;;;;;7.68;2.00;;;;;;;;;;5034443;28;20064;-70
2023/03/15 07:01:39;;;;;;;4.35;1.25;;;;;;;;;;5034389;28;20057;-69
2023/03/15 07:04:05;;;;;;;6.25;1.52;;;;;;;;;;5034276;28;20112;-69
2023/03/15 07:06:30;;;;;;;6.43;1.80;;;;;;;;;;5033913;28;20033;-69
2023/03/15 07:08:56;;;;;;;3.75;1.35;;;;;;;;;;5034017;28;20049;-69
2023/03/15 07:11:21;;;;;;;3.25;1.17;;;;;;;;;;5016329;28;20117;-69
2023/03/15 07:13:46;;;;;;;4.03;1.27;;;;;;;;;;5034029;28;20414;-69
2023/03/15 07:16:12;;;;;;;4.53;1.33;;;;;;;;;;5033866;28;20033;-69
2023/03/15 07:18:37;;;;;;;5.53;2.08;;;;;;;;;;5033745;28;20461;-69
2023/03/15 07:21:04;;;;;;;4.15;1.40;;;;;;;;;;5034089;28;20553;-69
2023/03/15 07:23:30;;;;;;;5.68;1.58;;;;;;;;;;5015932;28;20033;-69
2023/03/15 07:25:56;;;;;;;5.70;1.50;;;;;;;;;;5033495;28;20355;-69
2023/03/15 07:28:23;;;;;;;6.65;1.92;;;;;;;;;;5033599;28;20439;-69
2023/03/15 07:30:57;;;;;;;4.05;1.48;;;;;;;;;;5033847;28;20025;-69
2023/03/15 07:33:23;;;;;;;6.72;1.40;;;;;;;;;;5033620;28;20053;-69
2023/03/15 07:35:50;;;;;;;5.18;1.50;;;;;;;;;;5033624;28;20025;-70
2023/03/15 07:38:16;;;;;;;9.85;1.60;;;;;;;;;;5033083;28;20359;-69
2023/03/15 07:40:42;;;;;;;8.90;2.35;;;;;;;;;;5033541;28;20390;-69
2023/03/15 07:43:07;;;;;;;13.73;3.90;;;;;;;;;;5033484;28;20025;-69
2023/03/15 07:45:33;;;;;;;6.00;2.00;;;;;;;;;;5033212;28;20026;-69
2023/03/15 07:47:59;;;;;;;6.70;2.58;;;;;;;;;;5033483;28;20022;-69
2023/03/15 07:50:25;;;;;;;7.75;3.55;;;;;;;;;;5033287;28;20117;-70
2023/03/15 07:52:51;;;;;;;8.10;2.75;;;;;;;;;;5032990;28;20033;-69
2023/03/15 07:55:16;;;;;;;7.93;3.50;;;;;;;;;;5033150;28;20036;-69
2023/03/15 07:57:42;;;;;;;5.07;1.60;;;;;;;;;;5033208;28;20032;-69
2023/03/15 08:00:10;;;;;;;6.35;1.50;;;;;;;;;;5033200;28;20032;-69
2023/03/15 08:02:36;;;;;;;6.78;2.20;;;;;;;;;;5014411;28;20077;-69
2023/03/15 08:05:03;;;;;;;7.43;1.70;;;;;;;;;;5017788;28;20475;-69
2023/03/15 08:07:29;;;;;;;3.60;1.52;;;;;;;;;;5015908;28;20033;-69
2023/03/15 08:09:56;;;;;;;4.90;1.92;;;;;;;;;;5023595;28;20034;-69
2023/03/15 08:12:22;;;;;;;8.30;2.42;;;;;;;;;;5025608;28;20022;-70
2023/03/15 08:14:48;;;;;;;11.48;2.58;;;;;;;;;;5016429;28;20391;-69
2023/03/15 08:17:58;;;;;;;7.93;2.53;;;;;;;;;;5000071;28;20049;-69
2023/03/15 08:20:24;;;;;;;7.78;2.45;;;;;;;;;;5019857;28;20034;-69
2023/03/15 08:22:50;;;;;;;7.93;3.72;;;;;;;;;;5028682;28;20034;-69
2023/03/15 08:25:22;;;;;;;8.75;1.88;;;;;;;;;;5016302;28;20084;-69
2023/03/15 08:27:49;;;;;;;5.88;2.00;;;;;;;;;;5024378;28;20060;-69
2023/03/15 08:30:16;;;;;;;22.38;10.00;;;;;;;;;;5009973;28;20026;-69
2023/03/15 08:32:43;;;;;;;9.20;2.63;;;;;;;;;;5012761;28;20026;-68
2023/03/15 08:35:11;;;;;;;9.68;3.22;;;;;;;;;;5012388;28;20030;-69
2023/03/15 08:37:38;;;;;;;6.60;1.75;;;;;;;;;;5012659;28;20026;-69
2023/03/15 08:40:08;;;;;;;5.18;1.92;;;;;;;;;;5012737;28;20076;-67
2023/03/15 08:42:36;;;;;;;30.88;13.82;;;;;;;;;;5012635;28;20021;-69
2023/03/15 08:45:07;;;;;;;4.22;1.70;;;;;;;;;;5012754;28;20054;-69
2023/03/15 08:47:36;;;;;;;7.85;2.08;;;;;;;;;;5012689;28;20105;-69
2023/03/15 08:50:13;;;;;;;8.33;2.50;;;;;;;;;;5012182;28;20428;-69
2023/03/15 08:52:39;;;;;;;11.10;4.18;;;;;;;;;;5012479;28;20071;-69
2023/03/15 08:55:05;;;;;;;7.47;1.55;;;;;;;;;;5012471;28;20486;-67
2023/03/15 08:57:31;;;;;;;8.73;2.08;;;;;;;;;;5012338;28;20022;-69
2023/03/15 09:00:06;;;;;;;7.95;2.50;;;;;;;;;;5012467;28;20068;-69
2023/03/15 09:02:32;;;;;;;6.90;1.67;;;;;;;;;;5012673;28;20045;-69
2023/03/15 09:04:57;;;;;;;3.38;1.48;;;;;;;;;;5011896;28;20029;-70
2023/03/15 09:07:23;;;;;;;14.70;2.50;;;;;;;;;;5012392;28;20121;-69
2023/03/15 09:09:48;;;;;;;6.60;1.95;;;;;;;;;;5012322;28;20050;-70
2023/03/15 09:12:15;;;;;;;6.30;2.00;;;;;;;;;;5012532;28;20136;-70
2023/03/15 09:14:40;;;;;;;7.88;2.28;;;;;;;;;;5014211;28;20022;-69
2023/03/15 09:17:06;;;;;;;5.43;1.90;;;;;;;;;;5010570;28;20387;-69
2023/03/15 09:19:32;;;;;;;5.35;2.10;;;;;;;;;;5016341;28;20356;-69
2023/03/15 09:21:57;;;;;;;6.47;2.20;;;;;;;;;;5015549;28;20101;-70
2023/03/15 09:24:22;;;;;;;4.90;1.52;;;;;;;;;;5016276;28;20029;-69
2023/03/15 09:26:48;;;;;;;12.30;2.13;;;;;;;;;;5016217;28;20042;-69
2023/03/15 09:29:13;;;;;;;6.22;1.95;;;;;;;;;;5007012;28;20033;-69
2023/03/15 09:31:39;;;;;;;8.05;2.35;;;;;;;;;;4996661;28;20109;-69
2023/03/15 09:34:04;;;;;;;8.00;2.25;;;;;;;;;;4996414;28;20383;-69
2023/03/15 09:36:31;;;;;;;7.05;2.30;;;;;;;;;;4996194;28;20537;-68
2023/03/15 09:38:56;;;;;;;10.27;2.10;;;;;;;;;;4996429;28;20030;-69
2023/03/15 09:41:44;;;;;;;6.18;1.98;;;;;;;;;;4996296;28;20085;-70
2023/03/15 09:44:22;;;;;;;10.32;2.78;;;;;;;;;;4996363;28;20081;-70
2023/03/15 09:47:03;;;;;;;12.18;2.28;;;;;;;;;;4996442;28;20041;-70
2023/03/15 09:49:40;;;;;;;12.13;2.25;;;;;;;;;;4996052;28;20042;-70
2023/03/15 09:52:32;;;;;;;5.40;2.38;;;;;;;;;;4996755;28;20436;-70
2023/03/15 09:55:23;;;;;;;12.75;3.17;;;;;;;;;;5015701;28;20550;-70
2023/03/15 09:57:54;;;;;;;6.68;1.92;;;;;;;;;;5015701;28;20030;-67
2023/03/15 10:00:40;;;;;;;;;;;;;;;;;;5016246;28;20081;-67
2023/03/15 10:03:08;;;;;;;7.68;1.83;;;;;;;;;;5015081;28;20016;-68
2023/03/15 10:05:43;;;;;;;7.55;2.38;;;;;;;;;;5015584;28;20062;-69
2023/03/15 10:08:13;;;;;;;5.53;2.10;;;;;;;;;;5015572;28;20034;-69
2023/03/15 10:10:49;;;;;;;7.25;2.42;;;;;;;;;;5015481;28;20026;-69
2023/03/15 10:13:29;;;;;;;10.75;2.22;;;;;;;;;;5015520;28;20030;-69
2023/03/15 10:16:16;;;;;;;6.97;2.13;;;;;;;;;;5015294;28;20037;-69
2023/03/15 10:19:01;;;;;;;6.75;2.40;;;;;;;;;;5015216;28;20375;-69
2023/03/15 10:22:11;;;;;;;7.57;1.90;;;;;;;;;;5015301;28;20387;-69
2023/03/15 10:24:37;;;;;;;;;;;;;;;;;;5015754;28;20029;-69
2023/03/15 10:27:15;;;;;;;6.80;2.35;;;;;;;;;;5014442;28;19916;-69
2023/03/15 10:29:41;;;;;;;9.85;2.40;;;;;;;;;;5014951;28;20025;-69
2023/03/15 10:32:16;;;;;;;4.43;1.85;;;;;;;;;;5015023;28;20024;-69
2023/03/15 10:34:54;;;;;;;6.43;1.90;;;;;;;;;;5015087;28;20021;-69
2023/03/15 10:37:22;;;;;;;6.72;2.20;;;;;;;;;;5014848;28;20042;-69
2023/03/15 10:39:53;;;;;;;8.13;1.90;;;;;;;;;;5014952;28;20030;-69
2023/03/15 10:42:30;;;;;;;4.05;1.65;;;;;;;;;;5014944;28;20026;-69
2023/03/15 10:44:56;;;;;;;5.60;1.63;;;;;;;;;;5015005;28;20026;-69
2023/03/15 10:47:23;;;;;;;16.45;2.78;;;;;;;;;;5014515;28;20033;-69
2023/03/15 10:49:49;;;;;;;7.47;2.10;;;;;;;;;;5014717;28;20122;-69
2023/03/15 10:52:37;;;;;;;7.07;1.88;;;;;;;;;;5016576;28;20455;-68
2023/03/15 10:55:06;;;;;;;6.72;2.08;;;;;;;;;;5034353;28;20029;-68
2023/03/15 10:57:39;;;;;;;6.28;1.70;;;;;;;;;;5034478;28;20079;-69
2023/03/15 11:00:35;;;;;;;6.05;1.92;;;;;;;;;;5034290;28;20022;-69
2023/03/15 11:03:22;;;;;;;8.73;1.75;;;;;;;;;;5034462;28;20029;-69
2023/03/15 11:05:50;;;;;;;5.85;1.80;;;;;;;;;;5034048;28;20121;-69
2023/03/15 11:08:21;;;;;;;5.97;1.85;;;;;;;;;;5034110;28;20072;-69
2023/03/15 11:10:55;;;;;;;11.15;2.30;;;;;;;;;;5034238;28;20029;-69
2023/03/15 11:13:23;;;;;;;6.90;2.30;;;;;;;;;;5034161;28;20033;-69
2023/03/15 11:16:12;;;;;;;8.32;2.67;;;;;;;;;;5033514;28;20041;-69
2023/03/15 11:18:46;;;;;;;10.40;3.13;;;;;;;;;;5034091;28;20100;-69
2023/03/15 11:21:14;;;;;;;4.93;1.98;;;;;;;;;;5034057;28;20516;-69
2023/03/15 11:23:46;;;;;;;8.30;1.88;;;;;;;;;;5033816;28;20079;-69
2023/03/15 11:26:23;;;;;;;7.32;1.60;;;;;;;;;;5033962;28;20025;-69
2023/03/15 11:29:19;;;;;;;18.75;2.50;;;;;;;;;;5033702;28;20036;-69
2023/03/15 11:31:45;;;;;;;5.75;1.95;;;;;;;;;;5033113;28;20052;-69
2023/03/15 11:34:31;;;;;;;8.82;2.17;;;;;;;;;;5033608;28;20022;-69
2023/03/15 11:37:01;;;;;;;5.30;1.90;;;;;;;;;;4933577;29;20563;-69
2023/03/15 11:39:52;;;;;;;6.15;1.65;;;;;;;;;;4933642;29;20408;-69
2023/03/15 11:42:24;;;;;;;9.00;2.13;;;;;;;;;;4928797;29;20044;-69
2023/03/15 11:44:54;;;;;;;5.90;1.73;;;;;;;;;;4934044;29;20224;-69
2023/03/15 11:47:30;;;;;;;3.95;1.58;;;;;;;;;;4933868;29;20028;-69
2023/03/15 11:49:57;;;;;;;9.20;1.83;;;;;;;;;;4933785;29;20038;-69
2023/03/15 11:52:25;;;;;;;6.10;1.40;;;;;;;;;;4933855;29;20138;-69
2023/03/15 11:54:56;;;;;;;6.03;1.80;;;;;;;;;;4933838;29;20039;-69
2023/03/15 11:57:38;;;;;;;5.43;1.73;;;;;;;;;;4933925;29;20035;-69
2023/03/15 12:00:33;;;;;;;8.85;1.67;;;;;;;;;;4933602;29;20115;-69
2023/03/15 12:03:24;;;;;;;6.50;1.60;;;;;;;;;;4925531;29;20164;-69
2023/03/15 12:06:12;;;;;;;5.45;1.70;;;;;;;;;;4933607;29;20167;-68
2023/03/15 12:08:50;;;;;;;5.85;1.52;;;;;;;;;;4917699;29;20514;-69
2023/03/15 12:11:21;;;;;;;5.50;1.40;;;;;;;;;;4933686;29;20032;-69
2023/03/15 12:14:03;;;;;;;9.48;1.98;;;;;;;;;;4972271;28;20491;-69
2023/03/15 12:16:40;;;;;;;6.32;1.92;;;;;;;;;;5032900;28;20038;-69
2023/03/15 12:19:14;;;;;;;6.53;1.80;;;;;;;;;;5032888;28;20026;-69
2023/03/15 12:21:48;;;;;;;4.85;1.38;;;;;;;;;;5032736;28;20075;-69
2023/03/15 12:24:22;;;;;;;7.25;1.50;;;;;;;;;;5032804;28;20061;-69
2023/03/15 12:26:50;;;;;;;9.23;1.58;;;;;;;;;;5032810;28;20378;-69
2023/03/15 12:29:31;;;;;;;5.93;1.40;;;;;;;;;;5032150;28;20028;-69
2023/03/15 12:32:02;;;;;;;5.20;1.15;;;;;;;;;;5032512;28;20414;-69
2023/03/15 12:34:46;;;;;;;9.95;2.13;;;;;;;;;;5032497;28;20033;-69
2023/03/15 12:37:21;;;;;;;8.93;1.90;;;;;;;;;;5032378;28;20028;-69
2023/03/15 12:39:49;;;;;;;5.10;1.50;;;;;;;;;;5032476;28;20026;-69
2023/03/15 12:42:30;;;;;;;4.93;1.50;;;;;;;;;;5032155;28;20426;-69
2023/03/15 12:45:14;;;;;;;4.60;1.55;;;;;;;;;;5032624;28;20099;-69
2023/03/15 12:47:49;;;;;;;4.60;1.65;;;;;;;;;;5032360;28;20021;-69
2023/03/15 12:50:43;;;;;;;6.95;1.60;;;;;;;;;;5031902;28;20037;-69
2023/03/15 12:53:37;;;;;;;4.18;1.25;;;;;;;;;;5032170;28;20038;-69
2023/03/15 12:56:17;;;;;;;8.00;1.17;;;;;;;;;;5032031;28;20565;-69
2023/03/15 12:58:50;;;;;;;5.13;1.60;;;;;;;;;;5032212;28;20025;-69
2023/03/15 13:01:17;;;;;;;8.55;1.80;;;;;;;;;;5032318;28;20474;-69
2023/03/15 13:03:42;;;;;;;11.75;1.50;;;;;;;;;;5032208;28;20025;-69
2023/03/15 13:06:20;;;;;;;4.55;1.13;;;;;;;;;;5032043;28;20025;-69
2023/03/15 13:09:03;;;;;;;5.00;1.40;;;;;;;;;;5031834;28;20021;-69
2023/03/15 13:11:39;;;;;;;5.35;1.70;;;;;;;;;;5013681;28;20372;-69
2023/03/15 13:14:39;;;;;;;4.82;1.38;;;;;;;;;;5012314;28;20067;-69
2023/03/15 13:17:23;;;;;;;10.25;1.48;;;;;;;;;;5012027;28;20120;-69
2023/03/15 13:20:10;;;;;;;17.42;2.55;;;;;;;;;;5011695;28;20041;-69
2023/03/15 13:22:53;;;;;;;13.45;2.50;;;;;;;;;;4997751;28;20038;-69
2023/03/15 13:25:51;;;;;;;2.45;1.10;;;;;;;;;;5009722;28;20036;-69
2023/03/15 13:28:38;;;;;;;12.05;1.50;;;;;;;;;;4930201;29;20051;-69
2023/03/15 13:31:19;;;;;;;4.80;1.50;;;;;;;;;;4930248;29;20035;-68
2023/03/15 13:33:56;;;;;;;8.50;1.52;;;;;;;;;;4930345;29;20095;-69
2023/03/15 13:36:24;;;;;;;4.30;2.15;;;;;;;;;;4930400;29;20063;-69
2023/03/15 13:38:52;;;;;;;11.90;3.75;;;;;;;;;;4930194;29;20043;-69
2023/03/15 13:41:22;;;;;;;7.20;2.85;;;;;;;;;;4914208;29;20045;-68
2023/03/15 13:43:50;;;;;;;5.90;2.63;;;;;;;;;;4930021;29;20039;-69
2023/03/15 13:46:17;;;;;;;4.53;1.70;;;;;;;;;;4930182;29;20185;-69
2023/03/15 13:48:45;;;;;;;4.55;1.38;;;;;;;;;;4930130;29;20475;-69
2023/03/15 13:51:36;;;;;;;5.90;1.40;;;;;;;;;;4929926;29;20058;-69
2023/03/15 13:54:05;;;;;;;7.82;1.20;;;;;;;;;;4932121;29;20044;-69
2023/03/15 13:56:54;;;;;;;7.28;1.50;;;;;;;;;;4931940;29;20067;-69
2023/03/15 13:59:22;;;;;;;5.82;1.77;;;;;;;;;;4932415;29;20517;-69
2023/03/15 14:01:48;;;;;;;8.45;2.33;;;;;;;;;;4934398;29;20036;-69
2023/03/15 14:04:17;;;;;;;9.27;4.07;;;;;;;;;;4947295;28;20061;-69
2023/03/15 14:06:46;;;;;;;3.80;1.52;;;;;;;;;;4995984;28;20109;-69
2023/03/15 14:09:24;;;;;;;7.15;1.30;;;;;;;;;;4995803;28;20038;-69
2023/03/15 14:12:02;;;;;;;6.50;1.60;;;;;;;;;;4995857;28;20014;-69
2023/03/15 14:14:30;;;;;;;4.80;1.20;;;;;;;;;;4995836;28;20507;-69
2023/03/15 14:16:57;;;;;;;5.60;1.20;;;;;;;;;;4995571;28;20487;-69
2023/03/15 14:19:24;;;;;;;7.00;1.67;;;;;;;;;;4995589;28;20487;-69
2023/03/15 14:21:55;;;;;;;5.57;1.42;;;;;;;;;;4995449;28;20026;-69
2023/03/15 14:24:37;;;;;;;5.18;1.75;;;;;;;;;;4995472;28;20104;-69
2023/03/15 14:27:21;;;;;;;3.00;1.23;;;;;;;;;;4995456;28;20030;-69
2023/03/15 14:29:57;;;;;;;5.05;1.20;;;;;;;;;;4995451;28;20034;-69
2023/03/15 14:32:30;;;;;;;4.88;1.50;;;;;;;;;;4995624;28;20105;-69
2023/03/15 14:35:19;;;;;;;6.88;1.42;;;;;;;;;;4995529;28;20030;-69
2023/03/15 14:37:44;;;;;;;4.50;1.60;;;;;;;;;;4995214;28;20073;-69
2023/03/15 14:40:26;;;;;;;5.13;1.33;;;;;;;;;;4995365;28;20419;-69
2023/03/15 14:42:52;;;;;;;6.47;1.75;;;;;;;;;;4995302;28;20030;-69
2023/03/15 14:45:20;;;;;;;6.22;1.25;;;;;;;;;;4995240;28;20470;-69
2023/03/15 14:47:52;;;;;;;4.72;1.40;;;;;;;;;;4995227;28;20125;-69
2023/03/15 14:50:20;;;;;;;2.17;1.00;;;;;;;;;;4994987;28;20042;-69
2023/03/15 14:52:47;;;;;;;4.40;1.50;;;;;;;;;;5007519;28;20022;-69
2023/03/15 14:55:19;;;;;;;5.30;1.60;;;;;;;;;;5034257;28;20024;-69
2023/03/15 14:57:45;;;;;;;3.38;1.50;;;;;;;;;;5034461;28;20147;-69
2023/03/15 15:00:19;;;;;;;4.38;1.38;;;;;;;;;;5034163;28;20053;-69